Time;durP1;ratioP1;P1;durP2;ratioP2;P2;SDS_P1;SDS_P2;PMS_P1;PMS_P2;Temp;Humidity;BMP_temperature;BMP_pressure;BME280_temperature;BME280_humidity;BME280_pressure;Samples;Min_cycle;Max_cycle;Signal;HPM_P1;HPM_P2
2022/09/03 00:02:04;;;;;;;9.30;4.32;;;;;;;17.25;47.00;100990.66;5062516;28;20535;-56
2022/09/03 00:04:56;;;;;;;6.53;3.88;;;;;;;17.31;47.07;100989.84;5062218;28;20086;-56
2022/09/03 00:07:48;;;;;;;7.65;4.50;;;;;;;17.31;47.62;100991.69;5062696;28;20213;-56
2022/09/03 00:10:28;;;;;;;8.73;4.40;;;;;;;17.28;47.43;100989.44;5051031;28;20083;-58
2022/09/03 00:12:59;;;;;;;7.45;3.70;;;;;;;17.19;47.59;100989.63;5062563;28;20518;-57
2022/09/03 00:15:25;;;;;;;5.35;3.90;;;;;;;17.17;47.65;100985.50;5063262;28;20039;-57
2022/09/03 00:18:00;;;;;;;7.40;4.20;;;;;;;17.16;47.48;100987.34;5061993;28;20032;-56
2022/09/03 00:20:42;;;;;;;5.70;4.00;;;;;;;17.10;47.69;100984.63;5061985;28;20167;-57
2022/09/03 00:23:13;;;;;;;6.00;4.10;;;;;;;16.97;48.46;100986.22;5070427;28;20042;-56
2022/09/03 00:25:46;;;;;;;7.47;4.20;;;;;;;16.99;48.23;100986.84;5081941;28;20040;-56
2022/09/03 00:28:17;;;;;;;6.53;4.53;;;;;;;16.96;48.16;100984.56;5079657;28;20044;-57
2022/09/03 00:30:45;;;;;;;9.57;4.47;;;;;;;17.00;48.16;100979.63;5061958;28;20024;-56
2022/09/03 00:33:21;;;;;;;8.23;4.20;;;;;;;16.84;48.36;100986.16;5061827;28;20038;-57
2022/09/03 00:36:00;;;;;;;7.03;4.50;;;;;;;16.80;48.13;100991.94;5068374;28;20028;-57
2022/09/03 00:38:26;;;;;;;9.57;4.38;;;;;;;16.78;48.80;100991.28;5081502;28;20028;-57
2022/09/03 00:41:05;;;;;;;7.45;4.40;;;;;;;16.86;48.16;100989.47;5081674;28;20029;-56
2022/09/03 00:43:49;;;;;;;8.95;4.60;;;;;;;16.76;48.88;100985.31;5063584;28;20028;-57
2022/09/03 00:47:11;;;;;;;9.93;4.45;;;;;;;16.81;48.17;100988.22;5061464;28;20581;-56
2022/09/03 00:49:49;;;;;;;9.68;4.85;;;;;;;16.74;48.68;100983.88;4983416;28;20034;-57
2022/09/03 00:52:23;;;;;;;6.25;4.30;;;;;;;16.63;48.75;100993.28;4998883;28;20409;-57
2022/09/03 00:54:56;;;;;;;11.40;4.45;;;;;;;16.62;49.31;100984.44;5044031;28;20082;-57
2022/09/03 00:57:36;;;;;;;7.80;4.30;;;;;;;16.61;49.52;100981.94;5061386;28;20039;-57
2022/09/03 01:00:04;;;;;;;8.75;4.47;;;;;;;16.57;49.47;100983.38;5061141;28;20033;-56
2022/09/03 01:03:04;;;;;;;9.93;4.40;;;;;;;16.61;49.36;100989.97;5061554;28;20032;-58
2022/09/03 01:05:58;;;;;;;7.43;4.40;;;;;;;16.66;49.43;100984.84;5057275;28;20041;-58
2022/09/03 01:08:40;;;;;;;10.30;4.15;;;;;;;16.63;49.38;100979.91;5068779;28;20723;-56
2022/09/03 01:11:16;;;;;;;7.53;4.13;;;;;;;16.62;49.43;100978.25;5081183;28;20590;-56
2022/09/03 01:13:59;;;;;;;8.30;4.40;;;;;;;16.57;49.33;100976.16;5080746;28;20036;-58
2022/09/03 01:16:34;;;;;;;9.30;4.40;;;;;;;16.58;49.74;100972.44;5080064;28;20032;-56
2022/09/03 01:19:26;;;;;;;8.55;4.30;;;;;;;16.51;49.08;100972.44;5081002;28;20796;-57
2022/09/03 01:22:20;;;;;;;8.15;4.40;;;;;;;16.48;49.51;100972.00;5080915;28;20039;-57
2022/09/03 01:25:04;;;;;;;9.75;4.30;;;;;;;16.40;49.58;100978.34;5073072;28;20072;-56
2022/09/03 01:28:09;;;;;;;10.60;4.35;;;;;;;16.40;49.18;100981.81;5074961;28;20028;-56
2022/09/03 01:30:47;;;;;;;8.18;4.35;;;;;;;16.30;50.35;100980.53;5060827;28;20040;-56
2022/09/03 01:33:30;;;;;;;10.90;4.70;;;;;;;16.29;50.12;100984.22;5060953;28;20554;-58
2022/09/03 01:36:00;;;;;;;6.70;4.47;;;;;;;16.31;50.26;100982.19;5060787;28;20585;-57
2022/09/03 01:38:35;;;;;;;7.50;4.50;;;;;;;16.25;50.22;100976.59;5060720;28;20105;-58
2022/09/03 01:44:39;;;;;;;7.30;4.25;;;;;;;16.24;50.08;100980.28;5060866;28;20043;-58
2022/09/03 01:47:26;;;;;;;13.10;4.45;;;;;;;16.17;50.35;100973.25;5060581;28;20024;-56
2022/09/03 01:50:01;;;;;;;9.40;4.28;;;;;;;16.09;50.60;100968.88;5060426;28;20029;-57
2022/09/03 01:52:39;;;;;;;8.10;4.30;;;;;;;16.13;50.22;100975.47;5060757;28;20108;-57
2022/09/03 01:55:20;;;;;;;8.07;4.03;;;;;;;16.12;50.16;100979.19;5060927;28;20036;-56
2022/09/03 01:57:57;;;;;;;7.32;4.00;;;;;;;16.04;50.56;100976.66;5060379;28;21195;-57
2022/09/03 02:00:25;;;;;;;9.32;4.50;;;;;;;16.04;50.84;100982.00;5059305;28;20492;-56
2022/09/03 02:02:51;;;;;;;9.63;4.35;;;;;;;16.03;50.93;100978.50;5074424;28;20310;-56
2022/09/03 02:05:23;;;;;;;7.97;4.47;;;;;;;16.10;50.85;100992.75;5079784;28;20505;-57
2022/09/03 02:08:07;;;;;;;8.32;4.63;;;;;;;16.10;50.87;100997.28;5077770;28;20071;-58
2022/09/03 02:11:00;;;;;;;8.95;4.57;;;;;;;16.03;51.06;100991.06;5060357;28;20029;-55
2022/09/03 02:13:31;;;;;;;8.15;4.60;;;;;;;15.99;50.98;100974.56;5060202;28;20028;-57
2022/09/03 02:16:00;;;;;;;8.32;4.65;;;;;;;15.94;50.86;100975.13;5060317;28;20693;-57
2022/09/03 02:18:30;;;;;;;8.40;4.72;;;;;;;15.99;51.15;100975.38;5060133;28;20040;-56
2022/09/03 02:20:57;;;;;;;8.63;4.55;;;;;;;15.98;51.08;100973.75;5061382;28;20040;-57
2022/09/03 02:23:24;;;;;;;8.18;4.70;;;;;;;15.94;51.24;100961.75;5079785;28;20468;-57
2022/09/03 02:25:59;;;;;;;9.43;5.05;;;;;;;15.95;51.16;100975.97;5080413;28;20034;-56
2022/09/03 02:28:26;;;;;;;10.07;4.80;;;;;;;15.91;50.82;100966.66;5080495;28;20032;-58
2022/09/03 02:30:51;;;;;;;11.18;5.05;;;;;;;15.86;51.11;100975.25;5073727;28;20044;-57
2022/09/03 02:33:16;;;;;;;8.30;4.65;;;;;;;15.88;51.77;100983.91;5060251;28;20044;-56
2022/09/03 02:35:42;;;;;;;12.02;5.30;;;;;;;15.87;51.18;100976.91;5065704;28;20101;-58
2022/09/03 02:38:12;;;;;;;10.75;4.75;;;;;;;15.79;51.43;100979.72;5080192;28;20039;-57
2022/09/03 02:40:38;;;;;;;12.50;4.72;;;;;;;15.84;51.90;100979.97;5079909;28;20043;-57
2022/09/03 02:43:07;;;;;;;10.55;4.85;;;;;;;15.77;51.76;100979.06;5078192;28;20230;-57
2022/09/03 02:45:38;;;;;;;11.80;4.80;;;;;;;15.67;51.73;100974.91;5079794;28;20495;-56
2022/09/03 02:48:03;;;;;;;7.28;4.75;;;;;;;15.73;51.97;100971.47;5080294;28;20059;-57
2022/09/03 02:50:29;;;;;;;13.35;4.70;;;;;;;15.74;51.89;100969.59;5083048;28;20500;-57
2022/09/03 02:52:54;;;;;;;11.27;4.80;;;;;;;15.73;51.75;100967.94;5084029;28;20413;-56
2022/09/03 02:55:20;;;;;;;9.57;4.70;;;;;;;15.71;51.96;100973.50;5083758;28;20032;-56
2022/09/03 02:57:45;;;;;;;9.90;4.93;;;;;;;15.72;51.41;100974.31;5080903;28;20047;-58
2022/09/03 03:00:12;;;;;;;8.88;4.70;;;;;;;15.71;51.49;100968.16;5083190;28;20028;-57
2022/09/03 03:02:38;;;;;;;10.63;4.47;;;;;;;15.71;51.34;100973.50;5082699;28;20569;-58
2022/09/03 03:05:07;;;;;;;8.93;4.40;;;;;;;15.70;51.69;100966.47;5074216;28;20036;-56
2022/09/03 03:07:36;;;;;;;11.00;4.55;;;;;;;15.69;51.07;100975.53;5063271;28;20028;-57
2022/09/03 03:10:02;;;;;;;8.77;4.20;;;;;;;15.66;51.78;100975.94;5076549;28;20040;-55
2022/09/03 03:12:30;;;;;;;10.48;4.30;;;;;;;15.67;52.00;100980.25;5083304;28;20035;-56
2022/09/03 03:14:55;;;;;;;11.38;4.65;;;;;;;15.64;52.24;100977.13;5083193;28;20020;-57
2022/09/03 03:17:20;;;;;;;13.82;4.47;;;;;;;15.61;51.84;100978.34;5083286;28;20040;-56
2022/09/03 03:19:45;;;;;;;9.98;4.45;;;;;;;15.58;51.80;100976.03;5083642;28;20036;-58
2022/09/03 03:22:11;;;;;;;11.38;4.22;;;;;;;15.63;52.08;100970.94;5083030;28;20016;-56
2022/09/03 03:24:36;;;;;;;8.82;4.45;;;;;;;15.61;51.76;100973.00;5079100;28;20560;-56
2022/09/03 03:27:05;;;;;;;8.60;4.32;;;;;;;15.55;52.15;100968.41;5062537;28;20128;-58
2022/09/03 03:29:30;;;;;;;10.40;4.70;;;;;;;15.52;52.44;100974.13;5062944;28;20036;-56
2022/09/03 03:31:55;;;;;;;8.65;4.28;;;;;;;15.53;51.78;100973.09;5062896;28;20166;-57
2022/09/03 03:34:21;;;;;;;9.85;4.20;;;;;;;15.48;51.98;100967.53;5070794;28;20055;-56
2022/09/03 03:36:46;;;;;;;8.82;4.03;;;;;;;15.44;52.21;100972.41;5082887;28;20062;-57
2022/09/03 03:39:11;;;;;;;6.65;4.22;;;;;;;15.38;52.03;100967.81;5082025;28;20032;-57
2022/09/03 03:41:37;;;;;;;7.82;4.28;;;;;;;15.35;52.16;100968.22;5068002;28;20139;-58
2022/09/03 03:44:04;;;;;;;8.55;4.18;;;;;;;15.33;52.01;100971.06;5062464;28;20055;-55
2022/09/03 03:46:38;;;;;;;6.22;4.15;;;;;;;15.30;52.49;100976.81;5062569;28;20055;-57
2022/09/03 03:49:07;;;;;;;10.75;4.35;;;;;;;15.29;52.12;100969.81;5062562;28;20037;-57
2022/09/03 03:51:34;;;;;;;8.57;4.20;;;;;;;15.31;52.37;100970.44;5062407;28;20036;-56
2022/09/03 03:54:00;;;;;;;8.75;4.13;;;;;;;15.34;52.22;100967.38;5062043;28;20036;-57
2022/09/03 03:56:25;;;;;;;8.60;4.40;;;;;;;15.30;52.26;100976.81;5062144;28;20035;-57
2022/09/03 03:58:51;;;;;;;10.93;4.20;;;;;;;15.29;52.81;100975.16;5062621;28;20032;-56
2022/09/03 04:01:23;;;;;;;7.40;4.18;;;;;;;15.30;53.15;100982.16;5060953;28;20588;-56
2022/09/03 04:03:49;;;;;;;7.65;3.90;;;;;;;15.29;52.40;100965.28;5070986;28;20040;-58
2022/09/03 04:06:16;;;;;;;7.45;3.97;;;;;;;15.27;52.55;100972.66;5063351;28;20117;-55
2022/09/03 04:08:44;;;;;;;6.70;3.90;;;;;;;15.31;52.41;100968.59;5061749;28;20029;-56
2022/09/03 04:11:12;;;;;;;11.88;4.00;;;;;;;15.29;52.89;100969.81;5061904;28;20033;-56
2022/09/03 04:13:40;;;;;;;6.85;3.90;;;;;;;15.24;52.92;100969.56;5061635;28;20122;-58
2022/09/03 04:16:11;;;;;;;8.77;3.97;;;;;;;15.25;52.87;100971.19;5061711;28;20044;-57
2022/09/03 04:18:38;;;;;;;8.20;4.20;;;;;;;15.23;53.31;100978.56;5061846;28;20036;-57
2022/09/03 04:21:09;;;;;;;6.75;4.15;;;;;;;15.19;53.02;100965.59;5061488;28;20495;-56
2022/09/03 04:23:40;;;;;;;13.25;4.38;;;;;;;15.12;53.29;100972.72;5061870;28;20123;-55
2022/09/03 04:26:09;;;;;;;8.73;4.07;;;;;;;15.06;53.46;100970.81;5061521;28;20035;-57
2022/09/03 04:28:34;;;;;;;7.82;3.83;;;;;;;15.10;52.85;100972.06;5063566;28;20028;-58
2022/09/03 04:31:05;;;;;;;10.25;4.30;;;;;;;15.04;53.34;100964.81;5078515;28;20043;-57
2022/09/03 04:33:31;;;;;;;9.27;4.00;;;;;;;14.99;53.22;100964.56;5061792;28;20033;-56
2022/09/03 04:36:07;;;;;;;7.88;4.00;;;;;;;14.98;53.67;100962.88;5069124;28;20495;-57
2022/09/03 04:38:34;;;;;;;8.25;4.40;;;;;;;14.97;53.44;100962.06;5081887;28;20044;-58
2022/09/03 04:41:02;;;;;;;7.80;4.25;;;;;;;15.01;53.18;100965.19;5081420;28;20098;-56
2022/09/03 04:43:28;;;;;;;9.23;4.20;;;;;;;15.00;53.68;100971.56;5077338;28;20091;-57
2022/09/03 04:45:58;;;;;;;7.22;4.00;;;;;;;14.96;53.73;100964.94;5061393;28;20525;-55
2022/09/03 04:48:24;;;;;;;7.40;4.18;;;;;;;15.01;53.64;100973.19;5060835;28;20024;-56
2022/09/03 04:50:49;;;;;;;11.15;4.30;;;;;;;14.96;53.67;100964.94;5061350;28;20105;-56
2022/09/03 04:53:14;;;;;;;7.18;3.95;;;;;;;15.03;53.71;100966.66;5061217;28;20032;-57
2022/09/03 04:55:39;;;;;;;11.68;4.10;;;;;;;15.01;53.87;100970.53;5061270;28;20399;-56
2022/09/03 04:58:08;;;;;;;7.82;4.53;;;;;;;14.95;53.62;100976.63;5061030;28;20039;-57
2022/09/03 05:00:36;;;;;;;9.70;3.65;;;;;;;14.97;53.69;100971.91;5067315;28;20119;-55
2022/09/03 05:03:03;;;;;;;8.68;3.95;;;;;;;14.89;53.70;100976.34;5060336;28;20070;-56
2022/09/03 05:05:30;;;;;;;7.65;4.28;;;;;;;14.91;53.52;100971.66;5061327;28;20032;-57
2022/09/03 05:08:00;;;;;;;8.13;4.18;;;;;;;14.90;54.16;100974.53;5060676;28;20062;-57
2022/09/03 05:10:26;;;;;;;7.15;4.15;;;;;;;14.93;53.61;100972.31;5061238;28;20078;-57
2022/09/03 05:13:04;;;;;;;15.63;4.40;;;;;;;14.92;54.10;100967.94;5060311;28;20431;-56
2022/09/03 05:15:31;;;;;;;6.55;3.72;;;;;;;14.93;54.23;100968.78;5060805;28;20031;-56
2022/09/03 05:18:02;;;;;;;11.38;4.00;;;;;;;14.97;54.06;100971.91;5060471;28;20405;-58
2022/09/03 05:20:28;;;;;;;6.88;3.78;;;;;;;14.96;54.03;100967.59;5060880;28;20663;-56
2022/09/03 05:22:55;;;;;;;6.68;3.97;;;;;;;14.97;54.40;100972.75;5060599;28;20025;-56
2022/09/03 05:25:21;;;;;;;6.85;3.90;;;;;;;14.97;54.19;100971.91;5061082;28;20070;-56
2022/09/03 05:27:47;;;;;;;7.38;4.00;;;;;;;14.90;54.10;100967.31;5060598;28;20540;-58
2022/09/03 05:30:13;;;;;;;6.18;3.60;;;;;;;14.93;54.20;100963.44;5060718;28;20040;-58
2022/09/03 05:32:38;;;;;;;7.97;3.80;;;;;;;14.93;54.49;100966.97;5072539;28;20063;-56
2022/09/03 05:35:04;;;;;;;6.40;3.70;;;;;;;14.96;54.29;100967.59;5066961;28;20035;-56
2022/09/03 05:37:29;;;;;;;5.75;3.53;;;;;;;14.92;54.32;100970.63;5061659;28;20470;-56
2022/09/03 05:39:54;;;;;;;11.82;4.20;;;;;;;14.95;54.97;100969.41;5061205;28;20036;-57
2022/09/03 05:42:20;;;;;;;7.07;3.83;;;;;;;14.99;54.97;100961.88;5065185;28;20047;-57
2022/09/03 05:44:48;;;;;;;7.53;3.88;;;;;;;14.98;55.25;100978.91;5060928;28;20060;-58
2022/09/03 05:47:13;;;;;;;10.02;3.90;;;;;;;14.95;54.46;100968.63;5080765;28;20035;-56
2022/09/03 05:49:39;;;;;;;10.82;3.90;;;;;;;14.97;54.41;100970.09;5080720;28;20267;-57
2022/09/03 05:52:04;;;;;;;12.68;4.38;;;;;;;15.00;54.58;100963.53;5080877;28;20445;-56
2022/09/03 05:54:29;;;;;;;12.40;4.10;;;;;;;15.01;54.43;100970.53;5080753;28;20433;-57
2022/09/03 05:56:55;;;;;;;14.45;4.15;;;;;;;15.05;54.90;100969.97;5080608;28;20024;-58
2022/09/03 05:59:20;;;;;;;8.80;4.10;;;;;;;15.10;54.68;100980.06;5079257;28;20529;-57
2022/09/03 06:01:45;;;;;;;9.57;4.30;;;;;;;15.14;54.64;100973.34;5077183;28;20127;-57
2022/09/03 06:04:14;;;;;;;10.60;4.43;;;;;;;15.15;54.74;100975.00;5080595;28;20032;-57
2022/09/03 06:06:42;;;;;;;10.93;4.30;;;;;;;15.20;55.07;100972.59;5080446;28;20028;-57
2022/09/03 06:09:14;;;;;;;10.43;4.43;;;;;;;15.24;54.66;100974.91;5080408;28;20055;-56
2022/09/03 06:11:41;;;;;;;9.97;4.40;;;;;;;15.27;54.90;100978.03;5080615;28;20056;-57
2022/09/03 06:14:08;;;;;;;14.25;4.63;;;;;;;15.26;55.42;100970.19;5080784;28;20035;-57
2022/09/03 06:16:37;;;;;;;14.43;4.85;;;;;;;15.29;55.46;100977.84;5073463;28;20094;-56
2022/09/03 06:19:08;;;;;;;14.15;4.97;;;;;;;15.35;55.10;100968.22;5060167;28;20037;-56
2022/09/03 06:21:35;;;;;;;11.70;5.03;;;;;;;15.36;54.97;100970.72;5060262;28;20589;-57
2022/09/03 06:24:01;;;;;;;15.63;5.40;;;;;;;15.43;54.38;100971.59;5060774;28;20032;-56
2022/09/03 06:26:27;;;;;;;14.27;5.20;;;;;;;15.50;54.84;100979.69;5064161;28;20086;-56
2022/09/03 06:28:53;;;;;;;15.52;5.25;;;;;;;15.59;54.86;100980.34;5063991;28;20032;-57
2022/09/03 06:31:19;;;;;;;13.48;5.20;;;;;;;15.65;55.35;100978.78;5076978;28;20053;-57
2022/09/03 06:33:46;;;;;;;13.13;5.72;;;;;;;15.69;54.48;100975.53;5068114;28;20032;-58
2022/09/03 06:36:14;;;;;;;12.70;5.57;;;;;;;15.69;55.00;100975.53;5073858;28;20059;-57
2022/09/03 06:38:41;;;;;;;11.10;5.25;;;;;;;15.82;54.56;100973.97;5084337;28;20024;-56
2022/09/03 06:41:09;;;;;;;11.02;5.45;;;;;;;15.93;54.62;100986.88;5083951;28;20402;-58
2022/09/03 06:43:37;;;;;;;12.18;5.88;;;;;;;16.00;54.71;100976.22;5084140;28;20028;-56
2022/09/03 06:46:05;;;;;;;14.93;5.95;;;;;;;16.09;54.36;100980.41;5083982;28;20043;-58
2022/09/03 06:48:32;;;;;;;16.77;6.20;;;;;;;16.14;54.77;100977.97;5082984;28;20517;-56
2022/09/03 06:51:12;;;;;;;14.60;6.53;;;;;;;16.21;53.86;100977.19;5076000;28;20041;-57
2022/09/03 06:53:40;;;;;;;15.85;6.57;;;;;;;16.24;54.32;100977.63;5063512;28;20483;-56
2022/09/03 06:56:08;;;;;;;16.52;7.00;;;;;;;16.38;53.88;100983.06;5063643;28;20395;-57
2022/09/03 06:58:39;;;;;;;16.15;7.15;;;;;;;16.45;53.71;100977.75;5063348;28;20029;-56
2022/09/03 07:01:07;;;;;;;14.25;6.63;;;;;;;16.53;53.00;100981.09;5069944;28;20032;-56
2022/09/03 07:03:36;;;;;;;17.42;7.40;;;;;;;16.63;53.22;100974.56;5081660;28;20123;-56
2022/09/03 07:06:07;;;;;;;16.45;7.40;;;;;;;16.69;53.30;100979.13;5083446;28;20031;-56
2022/09/03 07:08:33;;;;;;;16.52;7.13;;;;;;;16.79;52.98;100979.56;5083104;28;20032;-57
2022/09/03 07:11:02;;;;;;;17.33;7.55;;;;;;;16.86;52.50;100981.44;5083419;28;20039;-56
2022/09/03 07:13:28;;;;;;;15.15;6.88;;;;;;;16.92;52.00;100978.78;5083384;28;20039;-56
2022/09/03 07:16:01;;;;;;;18.00;7.22;;;;;;;17.03;51.96;100990.78;5083141;28;20036;-57
2022/09/03 07:18:27;;;;;;;12.35;6.35;;;;;;;17.13;51.75;100990.44;5080650;28;20051;-58
2022/09/03 07:21:00;;;;;;;14.25;6.32;;;;;;;17.19;51.55;100980.75;5082999;28;20303;-56
2022/09/03 07:23:26;;;;;;;13.23;5.95;;;;;;;17.27;51.86;100985.91;5083575;28;20027;-56
2022/09/03 07:25:56;;;;;;;10.50;4.75;;;;;;;17.32;50.81;100980.78;5083064;28;20028;-57
2022/09/03 07:28:23;;;;;;;10.05;4.35;;;;;;;17.34;50.24;100981.44;5083181;28;20032;-57
2022/09/03 07:30:49;;;;;;;10.02;4.30;;;;;;;17.38;50.35;100989.03;5082028;28;20039;-57
2022/09/03 07:33:14;;;;;;;12.38;4.20;;;;;;;17.45;50.73;100987.19;5079424;28;20040;-57
2022/09/03 07:35:40;;;;;;;8.98;3.97;;;;;;;17.48;50.47;100982.25;5063362;28;20925;-57
2022/09/03 07:38:05;;;;;;;7.57;3.67;;;;;;;17.48;50.35;100986.81;5063029;28;20043;-56
2022/09/03 07:40:32;;;;;;;9.88;3.83;;;;;;;17.56;50.83;100988.47;5072244;28;20035;-57
2022/09/03 07:43:03;;;;;;;7.68;3.35;;;;;;;17.61;49.90;100983.28;5064233;28;20207;-57
2022/09/03 07:45:29;;;;;;;9.52;3.25;;;;;;;17.58;49.46;100986.41;5062349;28;20036;-56
2022/09/03 07:47:54;;;;;;;7.68;3.47;;;;;;;17.65;50.10;100991.78;5062628;28;20073;-56
2022/09/03 07:50:19;;;;;;;6.47;3.53;;;;;;;17.76;50.05;100983.09;5062198;28;20094;-57
2022/09/03 07:52:46;;;;;;;4.68;3.05;;;;;;;17.88;49.68;100986.00;5062646;28;20036;-55
2022/09/03 07:55:12;;;;;;;6.07;3.30;;;;;;;17.99;49.05;100987.22;5062235;28;20025;-57
2022/09/03 07:57:37;;;;;;;9.02;3.58;;;;;;;18.11;49.57;100979.41;5062672;28;20056;-57
2022/09/03 08:00:05;;;;;;;7.35;3.55;;;;;;;18.16;49.67;100987.66;5061899;28;20044;-57
2022/09/03 08:02:30;;;;;;;6.97;3.08;;;;;;;18.26;49.88;100987.25;5062457;28;20028;-58
2022/09/03 08:04:56;;;;;;;4.28;2.60;;;;;;;18.36;49.75;100992.16;5062710;28;20028;-56
2022/09/03 08:07:21;;;;;;;5.65;2.47;;;;;;;18.52;48.48;100996.25;5062372;28;20472;-56
2022/09/03 08:09:46;;;;;;;3.58;2.35;;;;;;;18.64;47.73;100989.19;5056570;28;20104;-56
2022/09/03 08:12:12;;;;;;;5.88;2.45;;;;;;;18.75;47.54;100984.22;5082419;28;20032;-57
2022/09/03 08:14:37;;;;;;;5.28;2.10;;;;;;;18.80;47.77;100981.72;5082050;28;20435;-56
2022/09/03 08:17:03;;;;;;;6.47;2.60;;;;;;;18.90;47.58;100987.44;5082127;28;20028;-58
2022/09/03 08:19:28;;;;;;;8.10;2.15;;;;;;;18.99;47.85;100990.69;5080511;28;20039;-57
2022/09/03 08:21:54;;;;;;;6.63;2.50;;;;;;;19.04;47.06;100998.97;5082096;28;20431;-58
2022/09/03 08:24:24;;;;;;;8.55;2.60;;;;;;;19.11;47.42;100993.56;5082037;28;20135;-57
2022/09/03 08:26:49;;;;;;;7.18;2.40;;;;;;;19.20;46.79;100997.66;5081811;28;20075;-57
2022/09/03 08:29:15;;;;;;;4.25;2.40;;;;;;;19.28;47.56;100998.47;5081750;28;20056;-57
2022/09/03 08:31:40;;;;;;;6.18;2.30;;;;;;;19.37;46.22;100997.16;5051815;28;20082;-57
2022/09/03 08:34:06;;;;;;;6.32;2.40;;;;;;;19.42;47.10;101000.00;5061574;28;20036;-57
2022/09/03 08:36:35;;;;;;;4.57;2.25;;;;;;;19.46;46.37;101001.25;5074126;28;20034;-57
2022/09/03 08:39:03;;;;;;;5.57;2.45;;;;;;;19.58;46.81;101003.19;5081896;28;20058;-56
2022/09/03 08:41:47;;;;;;;6.82;2.20;;;;;;;19.62;46.96;101007.13;5081342;28;20060;-56
2022/09/03 08:44:20;;;;;;;3.88;2.60;;;;;;;19.66;46.31;101011.03;5081791;28;20024;-58
2022/09/03 08:46:52;;;;;;;7.15;2.58;;;;;;;19.75;46.23;101009.69;5081220;28;20167;-56
2022/09/03 08:49:24;;;;;;;4.38;2.40;;;;;;;19.88;46.04;101007.94;5063101;28;20036;-57
2022/09/03 08:51:51;;;;;;;;;;;;;;;19.90;46.28;101011.25;5070592;28;20039;-57
2022/09/03 08:54:20;;;;;;;4.40;2.28;;;;;;;20.05;45.61;101005.56;5061935;28;19912;-56
2022/09/03 08:56:46;;;;;;;4.90;2.20;;;;;;;20.15;45.30;101007.75;5061342;28;20064;-56
2022/09/03 08:59:11;;;;;;;7.55;2.60;;;;;;;20.21;45.84;101000.66;5061305;28;20063;-58
2022/09/03 09:01:52;;;;;;;5.68;2.10;;;;;;;20.26;45.54;101009.72;5060961;28;20396;-57
2022/09/03 09:04:41;;;;;;;5.65;2.10;;;;;;;20.35;45.18;101006.72;5074796;28;20337;-57
2022/09/03 09:07:15;;;;;;;5.60;2.60;;;;;;;20.43;44.23;101001.06;5060580;28;20487;-56
2022/09/03 09:09:49;;;;;;;6.22;2.20;;;;;;;20.47;45.50;101010.31;5060920;28;20090;-57
2022/09/03 09:12:41;;;;;;;3.67;2.42;;;;;;;20.59;45.15;101006.88;5077867;28;20085;-57
2022/09/03 09:15:34;;;;;;;5.90;2.50;;;;;;;20.64;44.21;101009.72;5081679;28;20028;-58
2022/09/03 09:18:09;;;;;;;3.13;2.40;;;;;;;20.63;44.44;101008.09;5080437;28;20056;-59
2022/09/03 09:20:41;;;;;;;4.60;2.30;;;;;;;20.68;44.16;101010.94;5061194;28;20399;-56
2022/09/03 09:23:18;;;;;;;4.82;2.33;;;;;;;20.73;43.10;101018.34;5061038;28;20029;-59
2022/09/03 09:25:49;;;;;;;3.33;2.10;;;;;;;20.85;43.29;101015.72;5060582;28;20033;-56
2022/09/03 09:28:20;;;;;;;5.82;2.30;;;;;;;20.82;43.13;101009.72;5060981;28;20098;-56
2022/09/03 09:30:47;;;;;;;4.97;2.22;;;;;;;20.92;42.79;101005.72;5071113;28;20170;-57
2022/09/03 09:33:14;;;;;;;4.70;2.30;;;;;;;21.00;42.66;101010.78;5065155;28;20121;-58
2022/09/03 09:35:41;;;;;;;6.00;2.33;;;;;;;21.00;42.64;101001.84;5066398;28;20275;-57
2022/09/03 09:38:08;;;;;;;4.70;2.42;;;;;;;21.10;42.23;101002.97;5068584;28;20032;-58
2022/09/03 09:40:44;;;;;;;3.20;2.55;;;;;;;21.21;42.00;100993.28;5074212;28;20025;-56
2022/09/03 09:43:09;;;;;;;6.20;2.33;;;;;;;21.25;42.83;100998.22;5060388;28;20067;-57
2022/09/03 09:45:38;;;;;;;6.82;2.40;;;;;;;21.30;40.88;101007.25;5063578;28;20105;-57
2022/09/03 09:48:09;;;;;;;6.80;2.40;;;;;;;21.35;41.44;101004.69;5080530;28;20028;-57
2022/09/03 09:50:34;;;;;;;4.28;2.25;;;;;;;21.43;41.95;101005.41;5080679;28;20402;-56
2022/09/03 09:53:13;;;;;;;5.85;2.55;;;;;;;21.46;41.96;101013.06;5081022;28;20028;-56
2022/09/03 09:55:47;;;;;;;6.80;2.60;;;;;;;21.46;42.00;101007.69;5077216;28;20539;-56
2022/09/03 09:58:13;;;;;;;3.80;2.45;;;;;;;21.57;42.17;101006.84;5061080;28;20561;-56
2022/09/03 10:00:38;;;;;;;4.13;2.40;;;;;;;21.62;41.29;101004.28;5083512;28;20068;-55
2022/09/03 10:03:10;;;;;;;6.95;2.40;;;;;;;21.71;41.50;101001.31;5084316;28;20421;-56
2022/09/03 10:05:38;;;;;;;8.77;2.27;;;;;;;21.80;41.30;100999.88;5085152;28;20020;-56
2022/09/03 10:08:06;;;;;;;5.63;2.20;;;;;;;21.85;41.43;101000.00;5066873;28;20033;-56
2022/09/03 10:10:36;;;;;;;9.20;2.50;;;;;;;22.03;40.51;100993.69;5064399;28;20580;-55
2022/09/03 10:13:08;;;;;;;7.15;2.60;;;;;;;22.12;41.17;100996.88;5064079;28;20601;-56
2022/09/03 10:15:48;;;;;;;3.60;2.15;;;;;;;22.22;40.42;100998.13;5064118;28;20032;-60
2022/09/03 10:18:33;;;;;;;6.97;2.40;;;;;;;22.17;40.57;100986.16;5069356;28;20028;-55
2022/09/03 10:21:53;;;;;;;5.30;2.47;;;;;;;22.31;41.20;100997.53;5084482;28;20618;-56
2022/09/03 10:24:32;;;;;;;6.82;2.40;;;;;;;22.50;40.44;100991.19;4965809;28;20034;-56
2022/09/03 10:26:57;;;;;;;4.55;2.50;;;;;;;22.52;40.12;100989.09;5058261;28;20036;-57
2022/09/03 10:29:29;;;;;;;5.05;2.38;;;;;;;22.53;40.25;100990.72;5084212;28;20036;-57
2022/09/03 10:32:06;;;;;;;3.35;2.58;;;;;;;22.62;40.02;100989.31;5084113;28;20138;-56
2022/09/03 10:34:40;;;;;;;4.05;2.30;;;;;;;22.77;40.08;100993.38;5056520;28;20028;-56
2022/09/03 10:37:28;;;;;;;4.25;2.40;;;;;;;22.83;39.21;100979.72;5063986;28;20044;-56
2022/09/03 10:40:14;;;;;;;6.47;2.40;;;;;;;22.92;38.78;100982.03;5064272;28;20460;-56
2022/09/03 10:42:52;;;;;;;6.15;2.40;;;;;;;23.07;39.39;100989.59;5063056;28;20049;-55
2022/09/03 10:45:31;;;;;;;4.20;2.45;;;;;;;23.26;38.54;100987.53;5064120;28;20531;-56
2022/09/03 10:48:11;;;;;;;4.90;2.58;;;;;;;23.32;37.81;100985.75;5063172;28;20399;-57
2022/09/03 10:50:57;;;;;;;4.40;2.35;;;;;;;23.40;38.46;100982.66;5063741;28;20070;-56
2022/09/03 10:53:55;;;;;;;6.68;2.50;;;;;;;23.50;38.41;100988.22;5063678;28;20039;-56
2022/09/03 10:56:42;;;;;;;5.60;2.33;;;;;;;23.56;37.95;100981.03;5063709;28;20058;-57
2022/09/03 10:59:31;;;;;;;8.02;2.45;;;;;;;23.60;37.75;100984.06;5063287;28;20028;-56
2022/09/03 11:02:20;;;;;;;3.97;2.50;;;;;;;23.64;37.39;100983.31;5070432;28;20466;-56
2022/09/03 11:05:17;;;;;;;7.72;2.63;;;;;;;23.72;37.66;100973.97;5083250;28;20040;-56
2022/09/03 11:07:49;;;;;;;7.65;2.40;;;;;;;23.88;37.81;100983.13;5049018;28;20357;-58
2022/09/03 11:10:23;;;;;;;5.05;2.50;;;;;;;24.03;37.50;100990.66;5062840;28;20025;-57
2022/09/03 11:13:04;;;;;;;7.75;2.30;;;;;;;24.06;36.33;100989.34;5063566;28;20031;-55
2022/09/03 11:15:32;;;;;;;4.38;2.25;;;;;;;24.13;36.69;100989.22;5080761;28;20587;-56
2022/09/03 11:18:06;;;;;;;3.45;2.30;;;;;;;24.11;36.61;100986.75;5083420;28;20039;-55
2022/09/03 11:20:32;;;;;;;6.47;2.58;;;;;;;24.18;36.09;100983.88;5080087;28;20457;-56
2022/09/03 11:23:02;;;;;;;5.75;2.50;;;;;;;24.29;36.69;100987.53;5083225;28;20039;-57
2022/09/03 11:25:33;;;;;;;3.17;2.38;;;;;;;24.22;35.92;100976.06;5083400;28;20051;-56
2022/09/03 11:28:12;;;;;;;4.68;2.47;;;;;;;24.34;36.80;100978.66;5083280;28;20432;-56
2022/09/03 11:31:02;;;;;;;4.80;2.45;;;;;;;24.45;36.51;100977.72;5083081;28;20032;-58
2022/09/03 11:33:28;;;;;;;5.35;2.50;;;;;;;24.44;35.30;100979.63;5080845;28;20070;-55
2022/09/03 11:35:59;;;;;;;5.25;2.50;;;;;;;24.41;35.08;100973.84;5062952;28;20040;-57
2022/09/03 11:38:27;;;;;;;5.10;2.40;;;;;;;24.44;35.71;100978.78;5063035;28;20043;-57
2022/09/03 11:41:25;;;;;;;6.65;2.33;;;;;;;24.60;34.59;100970.84;5062593;28;20056;-57
2022/09/03 11:43:50;;;;;;;4.60;2.50;;;;;;;24.52;35.15;100964.78;5062426;28;20511;-57
2022/09/03 11:46:22;;;;;;;6.07;2.63;;;;;;;24.67;35.94;100961.44;5061976;28;20060;-59
2022/09/03 11:48:56;;;;;;;5.18;2.65;;;;;;;24.58;35.48;100969.19;5062264;28;20033;-56